Time;durP1;ratioP1;P1;durP2;ratioP2;P2;SDS_P1;SDS_P2;PMS_P1;PMS_P2;Temp;Humidity;BMP_temperature;BMP_pressure;BME280_temperature;BME280_humidity;BME280_pressure;Samples;Min_cycle;Max_cycle;Signal;HPM_P1;HPM_P2
2022/01/05 00:01:25;;;;;;;17.55;3.67;;;;;;;;;;5077631;28;20077;-83
2022/01/05 00:03:51;;;;;;;16.58;3.58;;;;;;;;;;5077491;28;20712;-83
2022/01/05 00:06:17;;;;;;;17.38;3.50;;;;;;;;;;5077619;28;20059;-82
2022/01/05 00:08:43;;;;;;;14.55;3.08;;;;;;;;;;5094447;28;20064;-83
2022/01/05 00:11:10;;;;;;;22.73;3.58;;;;;;;;;;5094882;28;20079;-83
2022/01/05 00:13:38;;;;;;;17.77;3.90;;;;;;;;;;5077502;28;20040;-84
2022/01/05 00:16:04;;;;;;;15.55;3.45;;;;;;;;;;5077951;28;20509;-82
2022/01/05 00:18:34;;;;;;;14.38;3.08;;;;;;;;;;5096235;28;20484;-83
2022/01/05 00:21:01;;;;;;;13.35;3.13;;;;;;;;;;5078650;28;20040;-82
2022/01/05 00:23:27;;;;;;;15.48;3.05;;;;;;;;;;5078662;28;20123;-84
2022/01/05 00:25:54;;;;;;;19.75;3.38;;;;;;;;;;5079655;28;20055;-84
2022/01/05 00:28:20;;;;;;;18.75;3.38;;;;;;;;;;5080627;28;20134;-83
2022/01/05 00:30:46;;;;;;;18.20;3.10;;;;;;;;;;5099753;28;20046;-83
2022/01/05 00:33:14;;;;;;;13.93;3.08;;;;;;;;;;5085347;28;20048;-83
2022/01/05 00:35:40;;;;;;;13.55;3.05;;;;;;;;;;5087054;28;20088;-83
2022/01/05 00:38:07;;;;;;;14.32;2.80;;;;;;;;;;5071839;28;20051;-82
2022/01/05 00:40:33;;;;;;;18.08;3.05;;;;;;;;;;5105665;28;20071;-83
2022/01/05 00:42:59;;;;;;;15.27;3.13;;;;;;;;;;5104098;28;20050;-84
2022/01/05 00:45:26;;;;;;;10.88;2.92;;;;;;;;;;5083922;28;20048;-83
2022/01/05 00:47:52;;;;;;;15.02;3.22;;;;;;;;;;5101190;28;20051;-83
2022/01/05 00:50:18;;;;;;;13.10;2.78;;;;;;;;;;5084063;28;20079;-83
2022/01/05 00:52:44;;;;;;;13.50;2.45;;;;;;;;;;5083250;28;20054;-83
2022/01/05 00:55:10;;;;;;;13.50;2.50;;;;;;;;;;5097856;28;20130;-83
2022/01/05 00:57:36;;;;;;;13.85;2.58;;;;;;;;;;5079409;28;20083;-83
2022/01/05 01:00:06;;;;;;;15.75;3.05;;;;;;;;;;5097879;28;20044;-83
2022/01/05 01:05:02;;;;;;;12.15;2.55;;;1.70;99.90;;;;;;5128680;27;20447;-75
2022/01/05 01:07:29;;;;;;;12.73;2.67;;;2.00;99.90;;;;;;5110110;28;20047;-74
2022/01/05 01:09:55;;;;;;;12.60;2.53;;;1.90;99.90;;;;;;5127601;28;20047;-75
2022/01/05 01:12:21;;;;;;;17.50;2.70;;;;;;;;;;5127144;27;20505;-74
2022/01/05 01:14:46;;;;;;;10.73;2.20;;;2.10;99.90;;;;;;5127404;28;20047;-74
2022/01/05 01:17:14;;;;;;;14.10;2.47;;;1.80;99.90;;;;;;5127090;28;20048;-75
2022/01/05 01:19:40;;;;;;;20.90;3.20;;;;;;;;;;5127057;27;20092;-75
2022/01/05 01:22:07;;;;;;;19.10;2.72;;;1.80;99.90;;;;;;5127072;28;20467;-75
2022/01/05 01:24:33;;;;;;;14.52;2.63;;;2.20;99.90;;;;;;5127027;28;20048;-75
2022/01/05 01:26:59;;;;;;;9.80;2.50;;;;;;;;;;5126470;28;20558;-75
2022/01/05 01:29:25;;;;;;;22.85;3.60;;;1.60;99.90;;;;;;5126585;28;20094;-75
2022/01/05 01:31:51;;;;;;;21.45;3.10;;;;;;;;;;5126870;28;20109;-75
2022/01/05 01:34:17;;;;;;;17.15;2.80;;;;;;;;;;5109684;27;20487;-75
2022/01/05 01:36:44;;;;;;;18.20;3.22;;;;;;;;;;5127034;28;20498;-75
2022/01/05 01:39:10;;;;;;;13.90;3.00;;;;;;;;;;5128272;28;20387;-75
2022/01/05 01:41:36;;;;;;;16.98;2.83;;;;;;;;;;5126969;27;20597;-75
2022/01/05 01:44:04;;;;;;;12.85;2.63;;;1.60;99.90;;;;;;5126419;27;20127;-74
2022/01/05 01:46:30;;;;;;;14.13;3.08;;;1.60;99.90;;;;;;5126381;27;20051;-75
2022/01/05 01:48:56;;;;;;;22.17;3.60;;;;;;;;;;5126314;27;20418;-75
2022/01/05 01:51:25;;;;;;;17.70;2.85;;;1.70;99.90;;;;;;5126641;27;20070;-74
2022/01/05 01:53:51;;;;;;;18.60;3.00;;;2.30;99.90;;;;;;5109148;28;20542;-74
2022/01/05 01:56:20;;;;;;;18.17;3.00;;;1.60;99.90;;;;;;5126073;28;20051;-75
2022/01/05 01:58:48;;;;;;;15.65;3.03;;;1.70;99.90;;;;;;5126675;28;20054;-75
2022/01/05 02:01:18;;;;;;;13.80;2.90;;;1.70;99.90;;;;;;5143831;27;20101;-75
2022/01/05 02:03:44;;;;;;;16.17;2.85;;;;;;;;;;5109298;28;20051;-75
2022/01/05 02:06:10;;;;;;;23.30;2.72;;;1.90;99.90;;;;;;5126463;28;20055;-75
2022/01/05 02:08:36;;;;;;;16.90;3.10;;;;;;;;;;5126583;27;20100;-77
2022/01/05 02:11:07;;;;;;;15.18;2.90;;;1.70;99.90;;;;;;5126152;27;20039;-75
2022/01/05 02:13:32;;;;;;;12.90;2.97;;;1.60;99.90;;;;;;5108563;28;20124;-74
2022/01/05 02:15:58;;;;;;;17.33;2.95;;;1.40;99.90;;;;;;5113776;28;20503;-75
2022/01/05 02:21:05;;;;;;;17.80;3.03;;;1.80;99.90;;;;;;5112451;28;20047;-74
2022/01/05 02:23:31;;;;;;;22.75;3.38;;;1.80;99.90;;;;;;5113013;28;20070;-75
2022/01/05 02:25:58;;;;;;;24.17;3.22;;;;;;;;;;5112241;28;20054;-75
2022/01/05 02:28:23;;;;;;;14.98;2.88;;;1.80;99.90;;;;;;5112057;28;20031;-75
2022/01/05 02:30:53;;;;;;;16.45;2.92;;;1.80;99.90;;;;;;5112277;28;20048;-75
2022/01/05 02:33:22;;;;;;;18.08;3.00;;;1.80;99.90;;;;;;5112185;28;20428;-75
2022/01/05 02:35:48;;;;;;;14.73;2.83;;;1.80;99.90;;;;;;5111774;28;20047;-75
2022/01/05 02:38:21;;;;;;;19.38;3.10;;;1.70;99.90;;;;;;5111984;28;20044;-75
2022/01/05 02:40:49;;;;;;;21.67;2.58;;;1.80;99.90;;;;;;5111755;28;20043;-75
2022/01/05 02:43:15;;;;;;;13.75;2.60;;;1.90;99.90;;;;;;5111796;28;20043;-75
2022/01/05 02:45:41;;;;;;;14.32;2.67;;;;;;;;;;5111731;28;20051;-75
2022/01/05 02:48:07;;;;;;;20.15;3.28;;;1.70;99.90;;;;;;5111802;28;20036;-75
2022/01/05 02:50:33;;;;;;;13.35;2.70;;;2.50;99.90;;;;;;5111902;28;20039;-75
2022/01/05 02:52:59;;;;;;;14.85;3.05;;;1.80;99.90;;;;;;5129056;27;20483;-75
2022/01/05 02:55:26;;;;;;;19.08;3.05;;;1.90;99.90;;;;;;5111711;28;20108;-75
2022/01/05 02:57:52;;;;;;;17.52;2.95;;;1.80;99.90;;;;;;5111872;28;20055;-75
2022/01/05 03:00:18;;;;;;;17.92;2.80;;;1.40;99.90;;;;;;5111665;28;20076;-74
2022/01/05 03:02:45;;;;;;;13.45;2.70;;;1.90;99.90;;;;;;5111275;28;20059;-74
2022/01/05 03:05:11;;;;;;;11.80;2.67;;;;;;;;;;5111565;28;20539;-75
2022/01/05 03:07:39;;;;;;;19.98;3.20;;;1.90;99.90;;;;;;5111109;28;20055;-75
2022/01/05 03:10:16;;;;;;;22.15;2.97;;;1.80;99.90;;;;;;5111183;28;20144;-75
2022/01/05 03:12:51;;;;;;;15.10;2.70;;;2.00;99.90;;;;;;5111250;28;20055;-75
2022/01/05 03:15:17;;;;;;;17.10;2.88;;;1.50;99.90;;;;;;5094408;28;20050;-75
2022/01/05 03:17:43;;;;;;;11.68;2.72;;;1.80;99.90;;;;;;5111550;28;20063;-75
2022/01/05 03:20:13;;;;;;;13.73;3.17;;;2.00;99.90;;;;;;5110962;28;20474;-75
2022/01/05 03:22:41;;;;;;;17.33;3.05;;;1.90;99.90;;;;;;5093580;28;20130;-75
2022/01/05 03:25:15;;;;;;;11.63;2.55;;;1.90;99.90;;;;;;5111013;28;20130;-75
2022/01/05 03:27:45;;;;;;;18.63;2.72;;;2.10;99.90;;;;;;5111041;28;20060;-75
2022/01/05 03:30:14;;;;;;;18.13;3.17;;;1.50;99.90;;;;;;5094127;28;20105;-75
2022/01/05 03:33:09;;;;;;;14.32;2.72;;;1.90;99.90;;;;;;5110941;28;20035;-75
2022/01/05 03:35:31;;;;;;;;;;;2.20;99.90;;;;;;5110976;28;20048;-75
2022/01/05 03:37:59;;;;;;;15.88;2.90;;;1.90;99.90;;;;;;5111033;28;19972;-75
2022/01/05 03:40:25;;;;;;;19.20;3.38;;;2.00;99.90;;;;;;5112208;28;20497;-75
2022/01/05 03:42:52;;;;;;;13.80;2.65;;;2.00;99.90;;;;;;5093479;28;20050;-75
2022/01/05 03:45:18;;;;;;;12.13;3.10;;;1.70;99.90;;;;;;5110799;28;20039;-75
2022/01/05 03:47:45;;;;;;;13.43;2.60;;;1.80;99.90;;;;;;5110755;28;20554;-75
2022/01/05 03:50:10;;;;;;;19.10;2.92;;;1.70;99.90;;;;;;5093978;28;20039;-75
2022/01/05 03:52:36;;;;;;;16.50;2.97;;;0.60;99.90;;;;;;5110793;28;20057;-75
2022/01/05 03:55:04;;;;;;;14.57;3.10;;;1.90;99.90;;;;;;5093630;28;20050;-75
2022/01/05 03:57:30;;;;;;;18.80;2.90;;;1.50;99.90;;;;;;5110295;28;20046;-75
2022/01/05 03:59:55;;;;;;;12.88;2.88;;;1.70;99.90;;;;;;5110501;28;20047;-75
2022/01/05 04:02:21;;;;;;;17.52;2.95;;;1.80;99.90;;;;;;5109966;28;20046;-75
2022/01/05 04:04:47;;;;;;;12.88;2.70;;;;;;;;;;5092913;28;20077;-75
2022/01/05 04:07:15;;;;;;;18.25;2.83;;;1.50;99.90;;;;;;5109819;28;20126;-75
2022/01/05 04:09:41;;;;;;;15.93;2.85;;;1.60;99.90;;;;;;5110032;28;20039;-75
2022/01/05 04:12:08;;;;;;;26.98;3.45;;;;;;;;;;5111323;28;20502;-75
2022/01/05 04:14:34;;;;;;;16.52;2.80;;;;;;;;;;5110189;28;20483;-75
2022/01/05 04:17:00;;;;;;;12.57;2.88;;;;;;;;;;5110020;28;20602;-68
2022/01/05 04:19:28;;;;;;;14.98;3.30;;;1.80;99.90;;;;;;5093031;28;20126;-68
2022/01/05 04:21:54;;;;;;;23.65;3.10;;;;;;;;;;5109784;28;20039;-68
2022/01/05 04:24:20;;;;;;;18.10;3.20;;;1.60;99.90;;;;;;5092787;28;20043;-69
2022/01/05 04:26:45;;;;;;;21.30;3.33;;;1.70;99.90;;;;;;5109733;28;20040;-69
2022/01/05 04:29:11;;;;;;;13.68;2.95;;;;;;;;;;5109961;28;20043;-69
2022/01/05 04:31:37;;;;;;;22.73;3.70;;;1.60;99.90;;;;;;5109892;28;20490;-69
2022/01/05 04:34:03;;;;;;;20.13;3.17;;;2.50;99.90;;;;;;5110990;28;20162;-68
2022/01/05 04:36:29;;;;;;;19.38;3.40;;;1.80;99.90;;;;;;5109861;28;20051;-68
2022/01/05 04:38:55;;;;;;;19.70;3.00;;;2.10;99.90;;;;;;5109374;28;20483;-68
2022/01/05 04:41:22;;;;;;;22.92;3.42;;;1.90;99.90;;;;;;5092560;28;20073;-68
2022/01/05 04:43:48;;;;;;;22.85;3.08;;;;;;;;;;5109463;28;20040;-68
2022/01/05 04:46:14;;;;;;;20.73;3.45;;;1.60;99.90;;;;;;5109990;28;20054;-68
2022/01/05 04:48:42;;;;;;;26.58;3.92;;;;;;;;;;5109629;28;20555;-68
2022/01/05 04:51:08;;;;;;;17.67;2.83;;;1.80;99.90;;;;;;5109562;28;20082;-68
2022/01/05 04:53:35;;;;;;;20.27;3.33;;;;;;;;;;5111032;28;20509;-68
2022/01/05 04:56:01;;;;;;;21.58;2.97;;;1.70;99.90;;;;;;5109274;28;20090;-68
2022/01/05 04:58:27;;;;;;;21.70;4.13;;;1.90;99.90;;;;;;5109527;28;20043;-68
2022/01/05 05:00:53;;;;;;;21.45;3.70;;;1.90;99.90;;;;;;5109555;28;20069;-68
2022/01/05 05:03:20;;;;;;;21.63;3.63;;;1.30;99.90;;;;;;5109114;28;20153;-68
2022/01/05 05:05:46;;;;;;;16.45;3.60;;;;;;;;;;5108543;28;20495;-68
2022/01/05 05:08:16;;;;;;;24.75;4.70;;;;;;;;;;5109257;28;20050;-68
2022/01/05 05:10:42;;;;;;;20.23;3.80;;;2.10;99.90;;;;;;5109083;28;20547;-68
2022/01/05 05:13:10;;;;;;;28.25;3.92;;;2.00;99.90;;;;;;5109039;28;20051;-68
2022/01/05 05:15:37;;;;;;;20.40;3.20;;;2.00;99.90;;;;;;5109507;28;20043;-68
2022/01/05 05:18:06;;;;;;;17.67;3.33;;;1.90;99.90;;;;;;5092667;28;20387;-68
2022/01/05 05:20:32;;;;;;;15.77;3.50;;;2.00;99.90;;;;;;5109398;28;20059;-68
2022/01/05 05:22:59;;;;;;;20.38;4.60;;;2.00;99.90;;;;;;5109372;28;20489;-68
2022/01/05 05:25:26;;;;;;;22.27;3.70;;;;;;;;;;5126688;27;20114;-68
2022/01/05 05:27:52;;;;;;;16.80;3.30;;;2.10;99.90;;;;;;5109150;28;20043;-68
2022/01/05 05:30:18;;;;;;;22.65;3.85;;;;;;;;;;5109061;28;20042;-68
2022/01/05 05:32:49;;;;;;;26.52;3.83;;;2.10;99.90;;;;;;5110498;28;20044;-68
2022/01/05 05:35:17;;;;;;;22.30;3.95;;;2.10;99.90;;;;;;5092221;28;20044;-68
2022/01/05 05:37:44;;;;;;;24.63;4.25;;;2.30;99.90;;;;;;5109027;28;20047;-68
2022/01/05 05:40:10;;;;;;;21.13;3.65;;;;;;;;;;5109347;28;20440;-68
2022/01/05 05:42:36;;;;;;;20.27;3.60;;;2.30;99.90;;;;;;5109402;28;20040;-68
2022/01/05 05:45:03;;;;;;;18.77;3.42;;;2.30;99.90;;;;;;5109071;28;20047;-68
2022/01/05 05:47:29;;;;;;;20.88;3.50;;;;;;;;;;5091760;28;20471;-68
2022/01/05 05:49:55;;;;;;;15.73;3.90;;;;;;;;;;5093290;28;20612;-68
2022/01/05 05:52:21;;;;;;;20.35;4.07;;;;;;;;;;5113501;28;20055;-68
2022/01/05 05:54:47;;;;;;;19.05;3.83;;;;;;;;;;5113205;28;20399;-68
2022/01/05 05:57:12;;;;;;;23.00;4.10;;;2.20;99.90;;;;;;5113337;28;20489;-68
2022/01/05 05:59:40;;;;;;;24.77;3.50;;;2.90;99.90;;;;;;5113319;28;20118;-68
2022/01/05 06:02:05;;;;;;;23.83;3.90;;;2.60;99.90;;;;;;5112858;28;20047;-68
2022/01/05 06:04:31;;;;;;;22.02;4.18;;;2.40;99.90;;;;;;5113471;28;20055;-68
2022/01/05 06:06:57;;;;;;;21.10;4.13;;;2.80;99.90;;;;;;5112825;28;20040;-68
2022/01/05 06:09:23;;;;;;;21.02;4.45;;;2.60;99.90;;;;;;5112298;28;20071;-68
2022/01/05 06:11:49;;;;;;;18.40;3.92;;;;;;;;;;5112147;28;20044;-68
2022/01/05 06:14:15;;;;;;;27.13;4.30;;;;;;;;;;5112105;28;20070;-68
2022/01/05 06:16:43;;;;;;;26.27;4.35;;;;;;;;;;5112638;28;20626;-68
2022/01/05 06:19:09;;;;;;;21.63;4.20;;;2.80;99.90;;;;;;5112275;28;20040;-68
2022/01/05 06:21:35;;;;;;;27.23;4.30;;;;;;;;;;5112471;28;20048;-69
2022/01/05 06:24:07;;;;;;;20.30;4.20;;;2.80;99.90;;;;;;5112579;28;20514;-68
2022/01/05 06:26:32;;;;;;;20.75;4.35;;;2.70;99.90;;;;;;5112751;28;20043;-68
2022/01/05 06:28:59;;;;;;;18.50;3.92;;;;;;;;;;5095097;28;20502;-68
2022/01/05 06:31:25;;;;;;;24.50;4.55;;;;;;;;;;5095078;28;20047;-69
2022/01/05 06:33:51;;;;;;;26.92;5.00;;;;;;;;;;5113446;28;20051;-68
2022/01/05 06:36:17;;;;;;;28.17;4.38;;;;;;;;;;5112154;28;20395;-69
2022/01/05 06:38:43;;;;;;;24.02;4.22;;;2.80;99.90;;;;;;5112433;28;20407;-68
2022/01/05 06:41:08;;;;;;;22.00;4.50;;;2.80;99.90;;;;;;5112069;28;20040;-69
2022/01/05 06:43:34;;;;;;;22.15;4.38;;;3.00;99.90;;;;;;5112941;28;20473;-69
2022/01/05 06:46:01;;;;;;;31.90;4.85;;;3.20;99.90;;;;;;5111702;28;20047;-68
2022/01/05 06:48:27;;;;;;;26.98;4.15;;;;;;;;;;5111577;28;20123;-69
2022/01/05 06:50:54;;;;;;;30.95;4.80;;;3.10;99.90;;;;;;5111910;28;20428;-68
2022/01/05 06:53:21;;;;;;;18.33;3.88;;;;;;;;;;5103950;27;20074;-68
2022/01/05 06:55:47;;;;;;;24.35;4.93;;;;;;;;;;5114546;27;20049;-69
2022/01/05 06:58:13;;;;;;;29.13;4.18;;;3.20;99.90;;;;;;5111122;28;20048;-69
2022/01/05 07:00:38;;;;;;;31.02;5.25;;;3.50;99.90;;;;;;5112792;28;20116;-68
2022/01/05 07:03:06;;;;;;;28.77;4.78;;;;;;;;;;5111731;28;20082;-68
2022/01/05 07:05:32;;;;;;;25.90;5.18;;;3.20;99.90;;;;;;5094942;28;20454;-68
2022/01/05 07:07:58;;;;;;;22.75;4.30;;;3.80;99.90;;;;;;5099272;27;20080;-70
2022/01/05 07:10:24;;;;;;;27.17;4.50;;;3.00;99.90;;;;;;5120612;27;20498;-73
2022/01/05 07:12:49;;;;;;;27.00;4.28;;;3.60;99.90;;;;;;5122308;27;20077;-74
2022/01/05 07:15:16;;;;;;;24.70;4.53;;;3.50;99.90;;;;;;5123292;27;20424;-75
2022/01/05 07:17:42;;;;;;;30.42;5.00;;;3.60;99.90;;;;;;5109823;27;20495;-75
2022/01/05 07:20:10;;;;;;;28.38;4.63;;;3.60;99.90;;;;;;5105315;28;20040;-75
2022/01/05 07:22:39;;;;;;;20.70;4.53;;;3.50;99.90;;;;;;5122261;27;20093;-75
2022/01/05 07:25:06;;;;;;;27.30;4.88;;;3.50;99.90;;;;;;5130883;27;20062;-76
2022/01/05 07:27:32;;;;;;;19.48;4.50;;;;;;;;;;5129961;27;20513;-75
2022/01/05 07:29:57;;;;;;;20.35;4.38;;;3.40;99.90;;;;;;5108780;28;20050;-67
2022/01/05 07:32:23;;;;;;;12.27;3.38;;;;;;;;;;5109524;28;20043;-67
2022/01/05 07:34:51;;;;;;;15.07;3.90;;;;;;;;;;5109173;28;20055;-67
2022/01/05 07:37:17;;;;;;;12.45;3.50;;;3.30;99.90;;;;;;5110139;28;20051;-68
2022/01/05 07:39:43;;;;;;;18.73;4.00;;;;;;;;;;5109473;28;20123;-68
2022/01/05 07:42:09;;;;;;;17.33;3.25;;;3.40;99.90;;;;;;5109034;28;20054;-76
2022/01/05 07:44:35;;;;;;;12.82;3.10;;;;;;;;;;5109363;28;20051;-76
2022/01/05 07:47:01;;;;;;;14.07;2.97;;;3.10;99.90;;;;;;5109361;28;20040;-76
2022/01/05 07:49:27;;;;;;;13.15;2.85;;;3.00;99.90;;;;;;5109583;28;20051;-75
2022/01/05 07:51:53;;;;;;;11.68;2.97;;;;;;;;;;5109161;28;20078;-75
2022/01/05 07:54:19;;;;;;;14.43;3.03;;;;;;;;;;5092577;28;20455;-75
2022/01/05 07:56:45;;;;;;;15.32;3.13;;;;;;;;;;5109433;28;20043;-76
2022/01/05 07:59:11;;;;;;;14.65;3.47;;;3.10;99.90;;;;;;5109144;28;20096;-76
2022/01/05 08:01:37;;;;;;;14.85;3.90;;;2.50;99.90;;;;;;5092575;28;20054;-75
2022/01/05 08:04:02;;;;;;;14.23;4.20;;;2.60;99.90;;;;;;5108170;27;20039;-74
2022/01/05 08:06:28;;;;;;;16.65;4.30;;;3.20;99.90;;;;;;5109238;28;20071;-74
2022/01/05 08:08:54;;;;;;;19.27;4.70;;;;;;;;;;5109110;28;20047;-74
2022/01/05 08:11:20;;;;;;;16.95;4.85;;;;;;;;;;5109139;28;20383;-74
2022/01/05 08:13:47;;;;;;;14.38;5.43;;;;;;;;;;5108547;28;20043;-74
2022/01/05 08:16:15;;;;;;;19.30;5.43;;;1.50;99.90;;;;;;5108691;28;20054;-75
2022/01/05 08:18:41;;;;;;;17.70;5.63;;;2.70;99.90;;;;;;5092315;28;20104;-75
2022/01/05 08:21:11;;;;;;;19.17;5.60;;;2.60;99.90;;;;;;5110188;27;20062;-76
2022/01/05 08:23:37;;;;;;;18.40;6.30;;;2.70;99.90;;;;;;5088542;28;20097;-75
2022/01/05 08:26:04;;;;;;;26.50;7.25;;;2.60;99.90;;;;;;5105246;28;20051;-75
2022/01/05 08:28:35;;;;;;;24.35;7.05;;;2.70;99.90;;;;;;5105929;28;20050;-66
2022/01/05 08:31:00;;;;;;;21.88;7.88;;;2.60;99.90;;;;;;5107247;28;20079;-66
2022/01/05 08:33:27;;;;;;;26.73;7.80;;;;;;;;;;5092037;28;20067;-66
2022/01/05 08:35:54;;;;;;;27.95;8.55;;;2.90;99.90;;;;;;5108195;28;20043;-66
2022/01/05 08:38:21;;;;;;;25.23;8.48;;;2.90;99.90;;;;;;5109025;28;20450;-66
2022/01/05 08:40:49;;;;;;;34.72;9.65;;;;;;;;;;5108495;28;20479;-66
2022/01/05 08:43:21;;;;;;;33.30;6.88;;;2.60;99.90;;;;;;5110305;28;20051;-66
2022/01/05 08:45:47;;;;;;;27.33;5.13;;;3.30;99.90;;;;;;5108941;28;20044;-66
2022/01/05 08:48:14;;;;;;;28.25;4.53;;;;;;;;;;5091853;28;20032;-65
2022/01/05 08:50:40;;;;;;;25.15;3.60;;;3.60;99.90;;;;;;5092127;27;20047;-66
2022/01/05 08:53:06;;;;;;;27.58;3.58;;;3.70;99.90;;;;;;5091231;28;20054;-66
2022/01/05 08:55:38;;;;;;;17.35;3.40;;;3.80;99.90;;;;;;5125442;27;20047;-66
2022/01/05 08:58:04;;;;;;;14.35;2.58;;;4.00;99.90;;;;;;5125449;27;20047;-65
2022/01/05 09:00:32;;;;;;;13.38;2.22;;;;;;;;;;5108640;28;20411;-66
2022/01/05 09:02:58;;;;;;;14.23;3.03;;;4.10;99.90;;;;;;5107599;28;20066;-66
2022/01/05 09:05:24;;;;;;;15.68;2.85;;;;;;;;;;5108106;28;20047;-66
2022/01/05 09:07:50;;;;;;;18.80;3.05;;;;;;;;;;5107998;28;20109;-67
2022/01/05 09:10:16;;;;;;;13.70;3.08;;;4.20;99.90;;;;;;5108506;28;20054;-66
2022/01/05 09:12:42;;;;;;;20.02;2.92;;;;;;;;;;5108612;28;20051;-66
2022/01/05 09:15:08;;;;;;;17.10;3.25;;;4.50;99.90;;;;;;5108395;28;20093;-67
2022/01/05 09:17:34;;;;;;;17.65;3.22;;;5.30;99.90;;;;;;5091269;28;20051;-66
2022/01/05 09:20:00;;;;;;;19.77;3.40;;;;;;;;;;5091258;28;20043;-66
2022/01/05 09:22:26;;;;;;;19.48;3.20;;;;;;;;;;5108422;28;20044;-66
2022/01/05 09:24:53;;;;;;;21.63;3.40;;;4.80;99.90;;;;;;5092475;28;20040;-66
2022/01/05 09:27:19;;;;;;;28.80;3.38;;;4.80;99.90;;;;;;5112594;28;20100;-67
2022/01/05 09:29:45;;;;;;;19.25;4.15;;;5.00;99.90;;;;;;5096048;28;20051;-67
2022/01/05 09:32:11;;;;;;;22.80;3.65;;;5.20;99.90;;;;;;5095834;28;20048;-66
2022/01/05 09:34:39;;;;;;;20.88;3.38;;;4.70;99.90;;;;;;5112958;28;20051;-66
2022/01/05 09:37:14;;;;;;;17.58;3.25;;;5.30;99.90;;;;;;5112286;27;20133;-67
2022/01/05 09:42:25;;;;;;;19.35;3.10;;;;;;;;;;5112270;28;20052;-66
2022/01/05 09:44:56;;;;;;;24.00;3.15;;;5.30;99.90;;;;;;5113389;28;20505;-67
2022/01/05 09:47:44;;;;;;;14.68;2.80;;;5.30;99.90;;;;;;5112385;27;20060;-67
2022/01/05 09:50:12;;;;;;;14.70;3.33;;;5.20;99.90;;;;;;5111999;28;20123;-67
2022/01/05 09:52:41;;;;;;;14.57;3.08;;;5.90;99.90;;;;;;5093240;27;20098;-75
2022/01/05 09:55:08;;;;;;;20.02;3.40;;;5.30;99.90;;;;;;5111948;28;20108;-75
2022/01/05 09:57:34;;;;;;;22.35;3.47;;;5.20;99.90;;;;;;5112465;27;20079;-74
2022/01/05 10:00:00;;;;;;;27.23;4.00;;;5.20;99.90;;;;;;5111849;28;20464;-75
2022/01/05 10:02:27;;;;;;;20.35;3.78;;;5.40;99.90;;;;;;5112207;28;20150;-74
2022/01/05 10:04:53;;;;;;;20.45;3.80;;;5.00;99.90;;;;;;5111422;28;20043;-75
2022/01/05 10:07:19;;;;;;;25.58;4.22;;;5.20;99.90;;;;;;5095029;28;20046;-75
2022/01/05 10:09:46;;;;;;;18.67;3.17;;;5.30;99.90;;;;;;5094621;28;20043;-66
2022/01/05 10:12:13;;;;;;;25.23;3.83;;;5.40;99.90;;;;;;5094945;28;20073;-66
2022/01/05 10:14:48;;;;;;;26.15;3.75;;;5.30;99.90;;;;;;5094448;28;20054;-66
2022/01/05 10:17:23;;;;;;;28.58;4.05;;;5.60;99.90;;;;;;5111793;28;20334;-67
2022/01/05 10:20:13;;;;;;;23.63;3.95;;;5.50;99.90;;;;;;5111159;28;20052;-67
2022/01/05 10:22:44;;;;;;;27.30;4.10;;;5.40;99.90;;;;;;5111357;28;20046;-66
2022/01/05 10:25:23;;;;;;;27.52;4.60;;;5.40;99.90;;;;;;5111135;28;20051;-67
2022/01/05 10:27:56;;;;;;;23.45;4.13;;;5.50;99.90;;;;;;5094063;28;20039;-67
2022/01/05 10:30:37;;;;;;;31.58;4.88;;;5.60;99.90;;;;;;5111308;28;20051;-66
2022/01/05 10:33:04;;;;;;;24.60;4.20;;;6.20;99.90;;;;;;5111140;28;20047;-66
2022/01/05 10:35:29;;;;;;;34.35;5.15;;;5.90;99.90;;;;;;5111006;28;20085;-66
2022/01/05 10:38:01;;;;;;;33.25;5.43;;;5.70;99.90;;;;;;5112353;28;20044;-67
2022/01/05 10:40:27;;;;;;;28.83;4.95;;;5.60;99.90;;;;;;5111689;28;20120;-67
2022/01/05 10:42:57;;;;;;;30.95;5.05;;;5.80;99.90;;;;;;5111092;28;20097;-67
2022/01/05 10:45:38;;;;;;;28.27;5.25;;;5.70;99.90;;;;;;5111011;28;20055;-67
2022/01/05 10:48:15;;;;;;;28.75;4.65;;;5.70;99.90;;;;;;5110979;28;20039;-66
2022/01/05 10:50:47;;;;;;;29.40;5.15;;;6.00;99.90;;;;;;5110505;28;20051;-67
2022/01/05 10:53:22;;;;;;;26.42;4.75;;;6.10;99.90;;;;;;5110738;28;20051;-66
2022/01/05 10:55:48;;;;;;;26.10;4.57;;;6.70;99.90;;;;;;5110290;28;20576;-66
2022/01/05 10:58:16;;;;;;;33.70;4.88;;;5.80;99.90;;;;;;5094469;28;20414;-67
2022/01/05 11:00:44;;;;;;;30.85;5.43;;;6.50;99.90;;;;;;5110231;28;20058;-68
2022/01/05 11:03:31;;;;;;;34.47;4.57;;;6.40;99.90;;;;;;5110262;28;20052;-67
2022/01/05 11:06:08;;;;;;;27.95;4.13;;;6.70;99.90;;;;;;5110253;28;20562;-67
2022/01/05 11:08:49;;;;;;;30.13;4.72;;;6.00;99.90;;;;;;5111960;28;20421;-67
2022/01/05 11:11:40;;;;;;;30.77;4.60;;;6.20;99.90;;;;;;5112058;28;20399;-67
2022/01/05 11:14:13;;;;;;;26.85;4.32;;;6.30;99.90;;;;;;5111873;28;20406;-67
2022/01/05 11:16:41;;;;;;;28.58;5.10;;;6.40;99.90;;;;;;5110099;28;20515;-67
2022/01/05 11:19:36;;;;;;;30.40;4.30;;;6.50;99.90;;;;;;5092992;28;20047;-67
2022/01/05 11:22:12;;;;;;;25.90;4.30;;;6.70;99.90;;;;;;5093194;28;20060;-67
2022/01/05 11:24:43;;;;;;;32.03;4.72;;;6.50;99.90;;;;;;5090121;28;20127;-67
2022/01/05 11:27:15;;;;;;;30.13;4.43;;;6.40;99.90;;;;;;5089501;28;20111;-68
2022/01/05 11:29:45;;;;;;;28.27;4.37;;;5.50;99.90;;;;;;5090559;28;20044;-68
2022/01/05 11:32:14;;;;;;;29.20;4.35;;;5.40;99.90;;;;;;5089166;28;20135;-68
2022/01/05 11:34:40;;;;;;;26.58;4.35;;;;;;;;;;5091490;28;20048;-68
2022/01/05 11:37:08;;;;;;;31.05;4.30;;;6.70;99.90;;;;;;5089008;28;20127;-68
2022/01/05 11:39:35;;;;;;;27.17;4.80;;;7.50;99.90;;;;;;5089647;28;20054;-68
2022/01/05 11:42:09;;;;;;;24.45;4.40;;;7.00;99.90;;;;;;5104554;27;20055;-68
2022/01/05 11:44:49;;;;;;;32.67;5.22;;;7.30;99.90;;;;;;5111189;28;20377;-68
2022/01/05 11:47:24;;;;;;;27.00;4.32;;;7.10;99.90;;;;;;5109126;28;20052;-68
2022/01/05 11:50:12;;;;;;;32.92;4.70;;;7.00;99.90;;;;;;5110322;28;20413;-68
2022/01/05 11:52:54;;;;;;;21.85;4.32;;;7.30;99.90;;;;;;5108907;28;20046;-76
2022/01/05 11:55:20;;;;;;;26.60;4.75;;;;;;;;;;5109412;28;20043;-68
2022/01/05 11:58:18;;;;;;;24.00;4.43;;;7.20;99.90;;;;;;5110892;27;20119;-68
2022/01/05 12:00:47;;;;;;;18.30;3.53;;;7.60;99.90;;;;;;5111048;28;20111;-69
2022/01/05 12:03:14;;;;;;;22.40;3.78;;;7.30;99.90;;;;;;5109109;28;20055;-69
2022/01/05 12:06:05;;;;;;;22.02;3.50;;;7.70;99.90;;;;;;5110126;28;20117;-68
2022/01/05 12:08:52;;;;;;;21.58;3.65;;;7.80;99.90;;;;;;5110748;27;20051;-69
2022/01/05 12:11:38;;;;;;;;;;;7.40;99.90;;;;;;5110236;28;20043;-69
2022/01/05 12:14:03;;;;;;;22.33;3.33;;;7.50;99.90;;;;;;5109254;28;20409;-68
2022/01/05 12:16:30;;;;;;;19.52;3.42;;;;;;;;;;5109673;28;20052;-68
2022/01/05 12:19:24;;;;;;;21.85;3.58;;;7.60;99.90;;;;;;5108996;28;20065;-69
2022/01/05 12:21:53;;;;;;;22.83;3.60;;;7.50;99.90;;;;;;5101363;28;20063;-69
2022/01/05 12:24:20;;;;;;;17.92;2.90;;;7.30;99.90;;;;;;5089610;28;20105;-68
2022/01/05 12:27:16;;;;;;;21.60;3.25;;;7.10;99.90;;;;;;5089792;28;20047;-68
2022/01/05 12:29:43;;;;;;;18.52;3.47;;;;;;;;;;5088617;28;20391;-69
2022/01/05 12:32:09;;;;;;;22.88;3.13;;;;;;;;;;5089741;28;20052;-68
2022/01/05 12:34:53;;;;;;;14.60;2.80;;;7.20;99.90;;;;;;5088274;28;20444;-68
2022/01/05 12:37:50;;;;;;;15.75;2.92;;;7.80;99.90;;;;;;5088519;28;20506;-68
2022/01/05 12:40:37;;;;;;;13.77;3.20;;;7.10;99.90;;;;;;5088465;28;20083;-68
2022/01/05 12:43:06;;;;;;;14.10;2.95;;;7.20;99.90;;;;;;5089443;28;20047;-68
2022/01/05 12:45:52;;;;;;;12.68;3.00;;;7.30;99.90;;;;;;5090104;28;20113;-69
2022/01/05 12:48:30;;;;;;;15.25;3.38;;;7.30;99.90;;;;;;5090073;28;20121;-68
2022/01/05 12:51:20;;;;;;;17.83;3.22;;;7.40;99.90;;;;;;5088536;28;20154;-69
2022/01/05 12:54:06;;;;;;;19.98;3.20;;;7.50;99.90;;;;;;5088143;28;20058;-69
2022/01/05 12:56:37;;;;;;;14.98;3.10;;;7.40;99.90;;;;;;5089139;28;20047;-69
2022/01/05 12:59:05;;;;;;;20.48;3.40;;;7.20;99.90;;;;;;5088454;28;20062;-69
2022/01/05 13:01:31;;;;;;;14.10;3.38;;;7.50;99.90;;;;;;5089241;28;20070;-69
2022/01/05 13:03:59;;;;;;;21.23;3.83;;;7.50;99.90;;;;;;5089443;28;20087;-69
2022/01/05 13:06:30;;;;;;;16.10;2.67;;;7.60;99.90;;;;;;5090187;28;20040;-69
2022/01/05 13:08:59;;;;;;;17.33;3.67;;;7.50;99.90;;;;;;5089674;28;20105;-69
2022/01/05 13:11:45;;;;;;;15.57;3.00;;;7.30;99.90;;;;;;5088473;28;20040;-69
2022/01/05 13:14:38;;;;;;;17.75;3.85;;;8.00;99.90;;;;;;5089135;28;20056;-68
2022/01/05 13:17:10;;;;;;;22.63;3.38;;;7.90;99.90;;;;;;5107604;28;20040;-69
2022/01/05 13:19:36;;;;;;;20.10;3.47;;;;;;;;;;5108226;28;20048;-69
2022/01/05 13:22:10;;;;;;;16.05;3.72;;;7.30;99.90;;;;;;5108101;28;20508;-68
2022/01/05 13:24:41;;;;;;;20.35;3.47;;;7.20;99.90;;;;;;5108204;28;20066;-69
2022/01/05 13:27:08;;;;;;;16.08;3.22;;;7.80;99.90;;;;;;5108450;28;20824;-69
2022/01/05 13:29:36;;;;;;;12.32;2.45;;;;;;;;;;5109582;27;20052;-69
2022/01/05 13:32:08;;;;;;;14.13;2.85;;;7.40;99.90;;;;;;5108202;28;20512;-69